Terminal Aerodrome Forecast
Issued by NWS Twin Cities, MN

Home | Current Version | Previous Version | Graphics & Text | Print | Product List | Glossary On
Versions: 1 2 3 4 5 6 7 8 9 10 11 12 13 14 15 16 17 18 19 20 21 22 23 24 25 26 27 28 29 30 31
000
FTUS43 KMPX 241120
TAFMSP
TAF
KMSP 241120Z 2412/2518 13010KT P6SM SCT008 OVC012
     FM241800 12012KT P6SM SCT015 BKN020 OVC035
     FM242100 13012KT P6SM SCT020 BKN040
     FM250200 12013KT P6SM VCTS OVC035CB
      TEMPO 2504/2508 2SM +SHRA BR OVC020
     FM250900 16008KT 6SM -SHRA BR OVC015
     FM251200 22007KT P6SM BKN025 BKN050=

USA.gov is the U.S. government's official web portal to all federal, state and local government web resources and services.